TAF and METAR

Decoding for American and Canadian METARs and TAFs is not fully implemented.

Could not understand the following METAR

KSAT 311151Z 35004KT 10SM FEW050 BKN220 22/19 A3008 RMK AO2 SLP167 60000 T02220189 10244 20217 51008

TAF for San Antonio International Airport

KSAT 311123Z 3112/0118 VRB04KT P6SM BKN050 FM311800 09008KT P6SM VCTS OVC035CB FM010900 05005KT P6SM VCTS OVC015CB
Report created 31. mai 13:23

between 31. mai 14:00 - 1. mai 20:00

wind 4 knots from various directions
San Antonio International Airport in United States of America at 243m

Latest 5 airports